sensor_id;sensor_type;location;lat;lon;timestamp;pressure;altitude;pressure_sealevel;temperature;humidity
4590;BME280;2307;48.448;9.216;2023-05-25T00:01:19;95722.94;;;11.59;82.57
4590;BME280;2307;48.448;9.216;2023-05-25T00:03:45;95724.84;;;11.64;81.46
4590;BME280;2307;48.448;9.216;2023-05-25T00:06:13;95720.72;;;11.68;81.54
4590;BME280;2307;48.448;9.216;2023-05-25T00:08:39;95729.63;;;11.50;85.02
4590;BME280;2307;48.448;9.216;2023-05-25T00:11:06;95720.50;;;11.69;82.16
4590;BME280;2307;48.448;9.216;2023-05-25T00:13:32;95715.44;;;11.68;80.51
4590;BME280;2307;48.448;9.216;2023-05-25T00:15:59;95722.59;;;11.56;81.98
4590;BME280;2307;48.448;9.216;2023-05-25T00:18:26;95721.91;;;11.37;86.63
4590;BME280;2307;48.448;9.216;2023-05-25T00:20:53;95721.00;;;11.32;87.43
4590;BME280;2307;48.448;9.216;2023-05-25T00:23:19;95718.56;;;11.42;83.14
4590;BME280;2307;48.448;9.216;2023-05-25T00:25:45;95721.22;;;11.42;85.34
4590;BME280;2307;48.448;9.216;2023-05-25T00:28:12;95720.75;;;11.33;86.70
4590;BME280;2307;48.448;9.216;2023-05-25T00:30:38;95711.31;;;11.49;84.50
4590;BME280;2307;48.448;9.216;2023-05-25T00:33:04;95713.84;;;11.55;82.57
4590;BME280;2307;48.448;9.216;2023-05-25T00:35:32;95714.53;;;11.62;85.04
4590;BME280;2307;48.448;9.216;2023-05-25T00:37:58;95706.75;;;11.44;88.02
4590;BME280;2307;48.448;9.216;2023-05-25T00:40:25;95711.06;;;11.62;83.88
4590;BME280;2307;48.448;9.216;2023-05-25T00:42:51;95714.53;;;11.62;80.81
4590;BME280;2307;48.448;9.216;2023-05-25T00:45:18;95716.34;;;11.73;81.71
4590;BME280;2307;48.448;9.216;2023-05-25T00:47:44;95718.31;;;11.66;86.80
4590;BME280;2307;48.448;9.216;2023-05-25T00:50:15;95713.41;;;11.47;85.55
4590;BME280;2307;48.448;9.216;2023-05-25T00:52:45;95713.41;;;11.35;89.47
4590;BME280;2307;48.448;9.216;2023-05-25T00:55:11;95710.78;;;11.35;87.01
4590;BME280;2307;48.448;9.216;2023-05-25T00:57:41;95705.03;;;11.38;84.01
4590;BME280;2307;48.448;9.216;2023-05-25T01:00:10;95710.31;;;11.38;82.74
4590;BME280;2307;48.448;9.216;2023-05-25T01:02:39;95700.78;;;11.26;82.56
4590;BME280;2307;48.448;9.216;2023-05-25T01:05:06;95696.53;;;11.13;82.85
4590;BME280;2307;48.448;9.216;2023-05-25T01:07:33;95707.53;;;11.33;81.63
4590;BME280;2307;48.448;9.216;2023-05-25T01:10:04;95702.47;;;11.43;84.88
4590;BME280;2307;48.448;9.216;2023-05-25T01:12:33;95700.84;;;11.42;80.22
4590;BME280;2307;48.448;9.216;2023-05-25T01:15:02;95702.72;;;11.30;81.99
4590;BME280;2307;48.448;9.216;2023-05-25T01:17:29;95704.66;;;10.88;85.10
4590;BME280;2307;48.448;9.216;2023-05-25T01:19:56;95706.28;;;11.01;86.76
4590;BME280;2307;48.448;9.216;2023-05-25T01:22:26;95706.50;;;10.88;88.54
4590;BME280;2307;48.448;9.216;2023-05-25T01:24:55;95702.63;;;10.90;88.92
4590;BME280;2307;48.448;9.216;2023-05-25T01:27:27;95701.56;;;10.91;88.75
4590;BME280;2307;48.448;9.216;2023-05-25T01:29:57;95695.25;;;10.81;89.61
4590;BME280;2307;48.448;9.216;2023-05-25T01:44:52;95711.41;;;10.49;95.81
4590;BME280;2307;48.448;9.216;2023-05-25T01:47:20;95707.13;;;10.48;96.80
4590;BME280;2307;48.448;9.216;2023-05-25T01:49:50;95699.06;;;10.43;96.74
4590;BME280;2307;48.448;9.216;2023-05-25T01:52:21;95702.53;;;10.44;96.77
4590;BME280;2307;48.448;9.216;2023-05-25T01:54:50;95704.81;;;10.40;96.49
4590;BME280;2307;48.448;9.216;2023-05-25T01:57:18;95703.06;;;10.04;99.14
4590;BME280;2307;48.448;9.216;2023-05-25T01:59:45;95695.81;;;10.00;100.00
4590;BME280;2307;48.448;9.216;2023-05-25T02:02:14;95695.81;;;10.00;99.44
4590;BME280;2307;48.448;9.216;2023-05-25T02:04:41;95698.94;;;10.08;99.43
4590;BME280;2307;48.448;9.216;2023-05-25T02:07:07;95701.25;;;10.05;98.84
4590;BME280;2307;48.448;9.216;2023-05-25T02:09:33;95699.63;;;10.04;100.00
4590;BME280;2307;48.448;9.216;2023-05-25T02:12:00;95697.72;;;9.93;100.00
4590;BME280;2307;48.448;9.216;2023-05-25T02:14:26;95695.28;;;10.09;99.56
4590;BME280;2307;48.448;9.216;2023-05-25T02:16:52;95691.56;;;10.17;97.96
4590;BME280;2307;48.448;9.216;2023-05-25T02:19:20;95686.53;;;10.27;95.74
4590;BME280;2307;48.448;9.216;2023-05-25T02:21:46;95690.31;;;10.31;96.31
4590;BME280;2307;48.448;9.216;2023-05-25T02:24:13;95695.03;;;10.29;96.61
4590;BME280;2307;48.448;9.216;2023-05-25T02:26:39;95687.47;;;10.33;97.82
4590;BME280;2307;48.448;9.216;2023-05-25T02:29:06;95690.19;;;10.26;100.00
4590;BME280;2307;48.448;9.216;2023-05-25T02:31:32;95694.00;;;10.30;99.95
4590;BME280;2307;48.448;9.216;2023-05-25T02:33:58;95686.53;;;10.09;100.00
4590;BME280;2307;48.448;9.216;2023-05-25T02:36:26;95682.31;;;10.08;100.00
4590;BME280;2307;48.448;9.216;2023-05-25T02:38:53;95688.75;;;10.12;100.00
4590;BME280;2307;48.448;9.216;2023-05-25T02:41:19;95695.34;;;10.03;100.00
4590;BME280;2307;48.448;9.216;2023-05-25T02:43:48;95689.63;;;10.06;100.00
4590;BME280;2307;48.448;9.216;2023-05-25T02:46:14;95683.91;;;10.09;99.42
4590;BME280;2307;48.448;9.216;2023-05-25T02:48:41;95688.91;;;9.99;100.00
4590;BME280;2307;48.448;9.216;2023-05-25T02:51:08;95684.38;;;9.76;100.00
4590;BME280;2307;48.448;9.216;2023-05-25T02:53:35;95684.22;;;9.71;100.00
4590;BME280;2307;48.448;9.216;2023-05-25T02:56:02;95675.38;;;9.47;100.00
4590;BME280;2307;48.448;9.216;2023-05-25T02:58:29;95678.97;;;9.53;100.00
4590;BME280;2307;48.448;9.216;2023-05-25T03:00:55;95676.69;;;9.56;100.00
4590;BME280;2307;48.448;9.216;2023-05-25T03:03:24;95685.53;;;9.62;100.00
4590;BME280;2307;48.448;9.216;2023-05-25T03:05:51;95682.09;;;9.61;100.00
4590;BME280;2307;48.448;9.216;2023-05-25T03:08:17;95689.72;;;9.70;100.00
4590;BME280;2307;48.448;9.216;2023-05-25T03:10:45;95686.59;;;9.91;100.00
4590;BME280;2307;48.448;9.216;2023-05-25T03:13:11;95692.97;;;9.83;100.00
4590;BME280;2307;48.448;9.216;2023-05-25T03:15:38;95689.38;;;9.96;100.00
4590;BME280;2307;48.448;9.216;2023-05-25T03:18:05;95700.72;;;9.67;100.00
4590;BME280;2307;48.448;9.216;2023-05-25T03:20:31;95691.84;;;9.79;100.00
4590;BME280;2307;48.448;9.216;2023-05-25T03:22:58;95690.41;;;9.77;100.00
4590;BME280;2307;48.448;9.216;2023-05-25T03:25:24;95686.84;;;9.71;100.00
4590;BME280;2307;48.448;9.216;2023-05-25T03:27:52;95693.94;;;9.71;100.00
4590;BME280;2307;48.448;9.216;2023-05-25T03:30:19;95685.75;;;9.79;100.00
4590;BME280;2307;48.448;9.216;2023-05-25T03:32:45;95689.13;;;9.68;100.00
4590;BME280;2307;48.448;9.216;2023-05-25T03:35:11;95686.47;;;9.68;100.00
4590;BME280;2307;48.448;9.216;2023-05-25T03:37:38;95685.16;;;9.58;100.00
4590;BME280;2307;48.448;9.216;2023-05-25T03:40:05;95687.38;;;9.61;100.00
4590;BME280;2307;48.448;9.216;2023-05-25T03:42:33;95683.41;;;9.52;100.00
4590;BME280;2307;48.448;9.216;2023-05-25T03:45:01;95680.84;;;9.64;100.00
4590;BME280;2307;48.448;9.216;2023-05-25T03:47:27;95683.19;;;9.72;100.00
4590;BME280;2307;48.448;9.216;2023-05-25T03:49:54;95686.75;;;9.48;100.00
4590;BME280;2307;48.448;9.216;2023-05-25T03:52:20;95686.66;;;9.36;100.00
4590;BME280;2307;48.448;9.216;2023-05-25T03:54:47;95684.38;;;9.40;100.00
4590;BME280;2307;48.448;9.216;2023-05-25T03:57:13;95693.38;;;9.32;100.00
4590;BME280;2307;48.448;9.216;2023-05-25T03:59:40;95692.22;;;9.28;100.00
4590;BME280;2307;48.448;9.216;2023-05-25T04:02:07;95690.91;;;9.37;100.00
4590;BME280;2307;48.448;9.216;2023-05-25T04:04:34;95690.59;;;9.27;100.00
4590;BME280;2307;48.448;9.216;2023-05-25T04:07:02;95698.66;;;9.32;100.00
4590;BME280;2307;48.448;9.216;2023-05-25T04:09:28;95691.78;;;9.31;100.00
4590;BME280;2307;48.448;9.216;2023-05-25T04:11:55;95700.13;;;9.46;100.00
4590;BME280;2307;48.448;9.216;2023-05-25T04:14:21;95707.16;;;9.52;100.00
4590;BME280;2307;48.448;9.216;2023-05-25T04:16:47;95706.72;;;9.19;100.00
4590;BME280;2307;48.448;9.216;2023-05-25T04:19:17;95707.41;;;9.08;100.00
4590;BME280;2307;48.448;9.216;2023-05-25T04:21:43;95700.84;;;9.17;100.00
4590;BME280;2307;48.448;9.216;2023-05-25T04:24:10;95709.47;;;9.06;100.00
4590;BME280;2307;48.448;9.216;2023-05-25T04:26:36;95703.72;;;9.16;100.00
4590;BME280;2307;48.448;9.216;2023-05-25T04:29:04;95701.38;;;9.26;100.00
4590;BME280;2307;48.448;9.216;2023-05-25T04:31:31;95699.38;;;9.21;100.00
4590;BME280;2307;48.448;9.216;2023-05-25T04:33:57;95700.41;;;9.20;100.00
4590;BME280;2307;48.448;9.216;2023-05-25T04:36:25;95698.19;;;9.17;100.00
4590;BME280;2307;48.448;9.216;2023-05-25T04:38:51;95701.88;;;9.16;100.00
4590;BME280;2307;48.448;9.216;2023-05-25T04:41:18;95710.66;;;9.28;100.00
4590;BME280;2307;48.448;9.216;2023-05-25T04:43:45;95720.16;;;9.29;100.00
4590;BME280;2307;48.448;9.216;2023-05-25T04:47:03;95717.84;;;9.21;100.00
4590;BME280;2307;48.448;9.216;2023-05-25T04:49:25;95721.59;;;9.07;100.00
4590;BME280;2307;48.448;9.216;2023-05-25T04:51:53;95723.88;;;8.79;100.00
4590;BME280;2307;48.448;9.216;2023-05-25T04:54:20;95725.84;;;8.90;100.00
4590;BME280;2307;48.448;9.216;2023-05-25T04:56:46;95726.69;;;8.84;100.00
4590;BME280;2307;48.448;9.216;2023-05-25T04:59:12;95732.16;;;8.82;100.00
4590;BME280;2307;48.448;9.216;2023-05-25T05:01:39;95728.03;;;8.93;100.00
4590;BME280;2307;48.448;9.216;2023-05-25T05:04:06;95733.56;;;9.10;100.00
4590;BME280;2307;48.448;9.216;2023-05-25T05:06:32;95737.59;;;8.87;100.00
4590;BME280;2307;48.448;9.216;2023-05-25T05:09:00;95741.53;;;9.03;100.00
4590;BME280;2307;48.448;9.216;2023-05-25T05:11:27;95734.50;;;8.97;100.00
4590;BME280;2307;48.448;9.216;2023-05-25T05:13:53;95740.97;;;8.94;100.00
4590;BME280;2307;48.448;9.216;2023-05-25T05:16:19;95736.63;;;9.06;100.00
4590;BME280;2307;48.448;9.216;2023-05-25T05:18:46;95742.25;;;9.10;100.00
4590;BME280;2307;48.448;9.216;2023-05-25T05:21:12;95749.13;;;9.11;100.00
4590;BME280;2307;48.448;9.216;2023-05-25T05:26:07;95757.56;;;9.44;100.00
4590;BME280;2307;48.448;9.216;2023-05-25T05:28:35;95757.81;;;9.36;100.00
4590;BME280;2307;48.448;9.216;2023-05-25T05:31:01;95758.69;;;9.30;100.00
4590;BME280;2307;48.448;9.216;2023-05-25T05:36:24;95767.78;;;9.34;100.00
4590;BME280;2307;48.448;9.216;2023-05-25T05:38:53;95761.06;;;9.56;100.00
4590;BME280;2307;48.448;9.216;2023-05-25T05:41:21;95767.59;;;9.72;100.00
4590;BME280;2307;48.448;9.216;2023-05-25T05:43:48;95765.59;;;9.68;100.00
4590;BME280;2307;48.448;9.216;2023-05-25T05:46:14;95775.78;;;9.64;100.00
4590;BME280;2307;48.448;9.216;2023-05-25T05:48:41;95778.50;;;9.76;100.00
4590;BME280;2307;48.448;9.216;2023-05-25T05:51:07;95781.25;;;9.99;100.00
4590;BME280;2307;48.448;9.216;2023-05-25T05:53:34;95778.47;;;10.12;100.00
4590;BME280;2307;48.448;9.216;2023-05-25T05:56:00;95786.56;;;10.17;100.00
4590;BME280;2307;48.448;9.216;2023-05-25T05:58:28;95790.22;;;10.16;100.00
4590;BME280;2307;48.448;9.216;2023-05-25T06:00:56;95790.63;;;10.49;100.00
4590;BME280;2307;48.448;9.216;2023-05-25T06:03:24;95790.41;;;10.62;100.00
4590;BME280;2307;48.448;9.216;2023-05-25T06:05:51;95795.00;;;10.55;100.00
4590;BME280;2307;48.448;9.216;2023-05-25T06:08:18;95804.22;;;10.64;100.00
4590;BME280;2307;48.448;9.216;2023-05-25T06:10:44;95800.59;;;10.77;100.00
4590;BME280;2307;48.448;9.216;2023-05-25T06:13:11;95794.84;;;10.80;100.00
4590;BME280;2307;48.448;9.216;2023-05-25T06:15:39;95791.88;;;10.88;100.00
4590;BME280;2307;48.448;9.216;2023-05-25T06:18:05;95797.50;;;10.92;100.00
4590;BME280;2307;48.448;9.216;2023-05-25T06:20:32;95797.75;;;11.02;100.00
4590;BME280;2307;48.448;9.216;2023-05-25T06:22:59;95788.09;;;10.84;100.00
4590;BME280;2307;48.448;9.216;2023-05-25T06:25:25;95788.72;;;11.21;100.00
4590;BME280;2307;48.448;9.216;2023-05-25T06:27:52;95796.75;;;11.03;100.00
4590;BME280;2307;48.448;9.216;2023-05-25T06:30:18;95791.09;;;11.11;100.00
4590;BME280;2307;48.448;9.216;2023-05-25T06:32:46;95799.50;;;11.08;100.00
4590;BME280;2307;48.448;9.216;2023-05-25T06:35:12;95801.69;;;11.23;100.00
4590;BME280;2307;48.448;9.216;2023-05-25T06:37:43;95802.28;;;11.36;100.00
4590;BME280;2307;48.448;9.216;2023-05-25T06:40:10;95801.50;;;11.47;100.00
4590;BME280;2307;48.448;9.216;2023-05-25T06:42:36;95789.97;;;11.30;100.00
4590;BME280;2307;48.448;9.216;2023-05-25T06:45:03;95794.94;;;11.38;100.00
4590;BME280;2307;48.448;9.216;2023-05-25T06:47:30;95805.72;;;11.48;100.00
4590;BME280;2307;48.448;9.216;2023-05-25T06:49:57;95809.75;;;11.62;100.00
4590;BME280;2307;48.448;9.216;2023-05-25T06:52:24;95815.97;;;11.80;100.00
4590;BME280;2307;48.448;9.216;2023-05-25T06:54:52;95813.78;;;11.77;100.00
4590;BME280;2307;48.448;9.216;2023-05-25T06:57:18;95813.78;;;12.00;100.00
4590;BME280;2307;48.448;9.216;2023-05-25T06:59:45;95819.66;;;11.90;100.00
4590;BME280;2307;48.448;9.216;2023-05-25T07:02:11;95824.16;;;11.78;100.00
4590;BME280;2307;48.448;9.216;2023-05-25T07:04:37;95831.63;;;11.46;100.00
4590;BME280;2307;48.448;9.216;2023-05-25T07:07:05;95834.03;;;11.48;100.00
4590;BME280;2307;48.448;9.216;2023-05-25T07:09:32;95836.25;;;11.74;100.00
4590;BME280;2307;48.448;9.216;2023-05-25T07:11:58;95831.41;;;11.71;100.00
4590;BME280;2307;48.448;9.216;2023-05-25T07:14:25;95833.38;;;11.76;100.00
4590;BME280;2307;48.448;9.216;2023-05-25T07:16:51;95834.50;;;11.80;100.00
4590;BME280;2307;48.448;9.216;2023-05-25T07:19:17;95840.03;;;11.90;100.00
4590;BME280;2307;48.448;9.216;2023-05-25T07:21:44;95837.03;;;11.86;100.00
4590;BME280;2307;48.448;9.216;2023-05-25T07:24:12;95837.50;;;11.71;100.00
4590;BME280;2307;48.448;9.216;2023-05-25T07:26:38;95828.50;;;11.96;100.00
4590;BME280;2307;48.448;9.216;2023-05-25T07:29:04;95839.22;;;12.01;100.00
4590;BME280;2307;48.448;9.216;2023-05-25T07:31:31;95834.63;;;12.08;100.00
4590;BME280;2307;48.448;9.216;2023-05-25T07:33:57;95846.66;;;12.27;100.00
4590;BME280;2307;48.448;9.216;2023-05-25T07:36:24;95855.84;;;12.36;100.00
4590;BME280;2307;48.448;9.216;2023-05-25T07:38:50;95848.63;;;12.20;100.00
4590;BME280;2307;48.448;9.216;2023-05-25T07:41:18;95853.28;;;12.41;100.00
4590;BME280;2307;48.448;9.216;2023-05-25T07:43:44;95846.41;;;12.29;100.00
4590;BME280;2307;48.448;9.216;2023-05-25T07:46:10;95847.69;;;12.26;100.00
4590;BME280;2307;48.448;9.216;2023-05-25T07:48:37;95857.81;;;12.69;100.00
4590;BME280;2307;48.448;9.216;2023-05-25T07:51:03;95855.13;;;12.81;100.00
4590;BME280;2307;48.448;9.216;2023-05-25T07:53:30;95853.03;;;12.54;100.00
4590;BME280;2307;48.448;9.216;2023-05-25T07:55:56;95856.91;;;12.63;100.00
4590;BME280;2307;48.448;9.216;2023-05-25T07:58:24;95854.03;;;12.65;100.00
4590;BME280;2307;48.448;9.216;2023-05-25T08:00:50;95849.25;;;12.78;100.00
4590;BME280;2307;48.448;9.216;2023-05-25T08:03:17;95852.03;;;13.00;100.00
4590;BME280;2307;48.448;9.216;2023-05-25T08:05:43;95858.72;;;13.31;100.00
4590;BME280;2307;48.448;9.216;2023-05-25T08:08:09;95861.34;;;13.48;100.00
4590;BME280;2307;48.448;9.216;2023-05-25T08:10:36;95858.88;;;13.41;100.00
4590;BME280;2307;48.448;9.216;2023-05-25T08:13:02;95863.22;;;13.47;100.00
4590;BME280;2307;48.448;9.216;2023-05-25T08:15:30;95856.84;;;13.81;100.00
4590;BME280;2307;48.448;9.216;2023-05-25T08:17:56;95853.06;;;13.77;100.00
4590;BME280;2307;48.448;9.216;2023-05-25T08:20:23;95859.13;;;13.73;100.00
4590;BME280;2307;48.448;9.216;2023-05-25T08:22:49;95862.53;;;13.73;100.00
4590;BME280;2307;48.448;9.216;2023-05-25T08:25:17;95862.09;;;13.60;100.00
4590;BME280;2307;48.448;9.216;2023-05-25T08:27:44;95854.84;;;13.89;100.00
4590;BME280;2307;48.448;9.216;2023-05-25T08:30:10;95856.72;;;14.10;100.00
4590;BME280;2307;48.448;9.216;2023-05-25T08:32:38;95856.38;;;14.23;100.00
4590;BME280;2307;48.448;9.216;2023-05-25T08:35:05;95853.44;;;14.41;100.00
4590;BME280;2307;48.448;9.216;2023-05-25T08:37:32;95855.09;;;14.69;100.00
4590;BME280;2307;48.448;9.216;2023-05-25T08:39:58;95856.88;;;14.63;100.00
4590;BME280;2307;48.448;9.216;2023-05-25T08:42:26;95855.94;;;14.53;100.00
4590;BME280;2307;48.448;9.216;2023-05-25T08:44:52;95854.19;;;14.58;100.00
4590;BME280;2307;48.448;9.216;2023-05-25T08:47:21;95858.97;;;14.83;100.00
4590;BME280;2307;48.448;9.216;2023-05-25T08:49:48;95854.81;;;14.92;100.00
4590;BME280;2307;48.448;9.216;2023-05-25T08:52:18;95853.41;;;15.11;100.00
4590;BME280;2307;48.448;9.216;2023-05-25T08:54:46;95858.63;;;15.01;100.00
4590;BME280;2307;48.448;9.216;2023-05-25T08:57:16;95861.78;;;15.25;100.00
4590;BME280;2307;48.448;9.216;2023-05-25T08:59:45;95863.44;;;15.31;100.00
4590;BME280;2307;48.448;9.216;2023-05-25T09:02:20;95859.06;;;15.47;100.00
4590;BME280;2307;48.448;9.216;2023-05-25T09:04:46;95858.16;;;15.63;100.00
4590;BME280;2307;48.448;9.216;2023-05-25T09:07:14;95851.69;;;15.90;100.00
4590;BME280;2307;48.448;9.216;2023-05-25T09:09:41;95859.78;;;16.06;100.00
4590;BME280;2307;48.448;9.216;2023-05-25T09:12:07;95869.97;;;16.14;100.00
4590;BME280;2307;48.448;9.216;2023-05-25T09:14:34;95867.75;;;16.01;100.00
4590;BME280;2307;48.448;9.216;2023-05-25T09:17:01;95876.19;;;15.92;100.00
4590;BME280;2307;48.448;9.216;2023-05-25T09:19:28;95870.00;;;16.24;98.44
4590;BME280;2307;48.448;9.216;2023-05-25T09:21:54;95871.97;;;15.97;100.00
4590;BME280;2307;48.448;9.216;2023-05-25T09:24:22;95881.00;;;15.95;100.00
4590;BME280;2307;48.448;9.216;2023-05-25T09:26:48;95887.97;;;16.02;100.00
4590;BME280;2307;48.448;9.216;2023-05-25T09:29:15;95884.81;;;16.05;100.00
4590;BME280;2307;48.448;9.216;2023-05-25T09:31:41;95883.00;;;16.10;100.00
4590;BME280;2307;48.448;9.216;2023-05-25T09:34:10;95881.16;;;16.16;100.00
4590;BME280;2307;48.448;9.216;2023-05-25T09:36:37;95876.94;;;16.20;100.00
4590;BME280;2307;48.448;9.216;2023-05-25T09:39:05;95883.81;;;16.58;100.00
4590;BME280;2307;48.448;9.216;2023-05-25T09:41:34;95889.00;;;16.89;97.94
4590;BME280;2307;48.448;9.216;2023-05-25T09:44:00;95885.25;;;16.85;99.32
4590;BME280;2307;48.448;9.216;2023-05-25T09:46:27;95886.03;;;16.76;99.66
4590;BME280;2307;48.448;9.216;2023-05-25T09:48:53;95884.94;;;16.72;98.03
4590;BME280;2307;48.448;9.216;2023-05-25T09:51:20;95876.72;;;16.83;98.27
4590;BME280;2307;48.448;9.216;2023-05-25T09:53:46;95886.34;;;16.89;100.00
4590;BME280;2307;48.448;9.216;2023-05-25T09:56:13;95877.84;;;17.08;96.93
4590;BME280;2307;48.448;9.216;2023-05-25T09:58:42;95880.50;;;17.13;97.58
4590;BME280;2307;48.448;9.216;2023-05-25T10:01:10;95874.91;;;16.99;99.52
4590;BME280;2307;48.448;9.216;2023-05-25T10:03:38;95877.56;;;17.04;100.00
4590;BME280;2307;48.448;9.216;2023-05-25T10:06:10;95870.94;;;17.17;100.00
4590;BME280;2307;48.448;9.216;2023-05-25T10:08:37;95877.91;;;17.28;100.00
4590;BME280;2307;48.448;9.216;2023-05-25T10:11:04;95881.66;;;17.47;96.87
4590;BME280;2307;48.448;9.216;2023-05-25T10:13:31;95882.75;;;17.61;94.67
4590;BME280;2307;48.448;9.216;2023-05-25T10:15:59;95882.47;;;17.52;95.21
4590;BME280;2307;48.448;9.216;2023-05-25T10:18:27;95885.63;;;17.29;94.69
4590;BME280;2307;48.448;9.216;2023-05-25T10:20:59;95879.03;;;17.62;97.98
4590;BME280;2307;48.448;9.216;2023-05-25T10:23:26;95885.97;;;17.83;100.00
4590;BME280;2307;48.448;9.216;2023-05-25T10:25:55;95884.88;;;17.79;92.62
4590;BME280;2307;48.448;9.216;2023-05-25T10:28:25;95880.88;;;17.77;95.07
4590;BME280;2307;48.448;9.216;2023-05-25T10:30:53;95876.34;;;17.97;91.94
4590;BME280;2307;48.448;9.216;2023-05-25T10:33:21;95885.38;;;18.22;94.86
4590;BME280;2307;48.448;9.216;2023-05-25T10:35:48;95882.13;;;18.45;92.22
4590;BME280;2307;48.448;9.216;2023-05-25T10:38:15;95878.38;;;18.46;87.94
4590;BME280;2307;48.448;9.216;2023-05-25T10:40:42;95878.84;;;18.73;86.97
4590;BME280;2307;48.448;9.216;2023-05-25T10:43:11;95888.00;;;19.16;85.05
4590;BME280;2307;48.448;9.216;2023-05-25T10:45:39;95888.72;;;19.37;81.38
4590;BME280;2307;48.448;9.216;2023-05-25T10:48:06;95892.69;;;19.39;80.55
4590;BME280;2307;48.448;9.216;2023-05-25T10:50:35;95888.25;;;19.63;80.75
4590;BME280;2307;48.448;9.216;2023-05-25T10:53:02;95890.19;;;19.58;78.07
4590;BME280;2307;48.448;9.216;2023-05-25T10:55:29;95890.88;;;19.74;80.46
4590;BME280;2307;48.448;9.216;2023-05-25T10:58:06;95894.06;;;19.37;79.75
4590;BME280;2307;48.448;9.216;2023-05-25T11:00:33;95902.91;;;19.37;77.41
4590;BME280;2307;48.448;9.216;2023-05-25T11:02:59;95892.97;;;19.38;79.36
4590;BME280;2307;48.448;9.216;2023-05-25T11:05:29;95892.94;;;19.48;78.09
4590;BME280;2307;48.448;9.216;2023-05-25T11:07:58;95893.31;;;19.70;79.75
4590;BME280;2307;48.448;9.216;2023-05-25T11:10:43;95892.00;;;19.68;76.61
4590;BME280;2307;48.448;9.216;2023-05-25T11:13:20;95888.94;;;19.79;78.41
4590;BME280;2307;48.448;9.216;2023-05-25T11:15:47;95894.09;;;20.04;76.68
4590;BME280;2307;48.448;9.216;2023-05-25T11:18:13;95886.31;;;20.37;76.29
4590;BME280;2307;48.448;9.216;2023-05-25T11:20:40;95896.56;;;20.30;75.01
4590;BME280;2307;48.448;9.216;2023-05-25T11:23:22;95895.25;;;20.27;74.95
4590;BME280;2307;48.448;9.216;2023-05-25T11:25:48;95892.28;;;20.00;74.86
4590;BME280;2307;48.448;9.216;2023-05-25T11:28:15;95892.06;;;20.20;75.15
4590;BME280;2307;48.448;9.216;2023-05-25T11:30:41;95890.19;;;19.58;77.15
4590;BME280;2307;48.448;9.216;2023-05-25T11:33:08;95889.50;;;19.81;79.64
4590;BME280;2307;48.448;9.216;2023-05-25T11:35:35;95892.25;;;19.66;80.26
4590;BME280;2307;48.448;9.216;2023-05-25T11:38:05;95889.88;;;19.98;80.81
4590;BME280;2307;48.448;9.216;2023-05-25T11:40:33;95887.72;;;20.00;75.84
4590;BME280;2307;48.448;9.216;2023-05-25T11:43:00;95891.28;;;20.20;78.29
4590;BME280;2307;48.448;9.216;2023-05-25T11:45:28;95879.06;;;20.08;76.10
4590;BME280;2307;48.448;9.216;2023-05-25T11:47:54;95892.19;;;19.76;79.98
4590;BME280;2307;48.448;9.216;2023-05-25T11:50:22;95891.00;;;20.50;74.29
4590;BME280;2307;48.448;9.216;2023-05-25T11:52:48;95900.03;;;20.59;72.34
4590;BME280;2307;48.448;9.216;2023-05-25T11:55:14;95892.53;;;21.03;74.12
4590;BME280;2307;48.448;9.216;2023-05-25T11:57:42;95889.13;;;21.40;64.01
4590;BME280;2307;48.448;9.216;2023-05-25T12:00:09;95884.59;;;22.05;63.98
4590;BME280;2307;48.448;9.216;2023-05-25T12:02:36;95890.91;;;22.14;62.60
4590;BME280;2307;48.448;9.216;2023-05-25T12:05:03;95896.78;;;21.84;58.39
4590;BME280;2307;48.448;9.216;2023-05-25T12:07:31;95899.13;;;21.72;61.83
4590;BME280;2307;48.448;9.216;2023-05-25T12:10:04;95885.69;;;21.72;62.89
4590;BME280;2307;48.448;9.216;2023-05-25T12:12:35;95896.59;;;21.25;66.57
4590;BME280;2307;48.448;9.216;2023-05-25T12:15:04;95894.75;;;20.96;65.17
4590;BME280;2307;48.448;9.216;2023-05-25T12:17:32;95899.28;;;21.01;64.99
4590;BME280;2307;48.448;9.216;2023-05-25T12:19:58;95888.69;;;20.67;68.65
4590;BME280;2307;48.448;9.216;2023-05-25T12:22:25;95891.59;;;20.71;69.85
4590;BME280;2307;48.448;9.216;2023-05-25T12:24:52;95890.03;;;20.64;68.50
4590;BME280;2307;48.448;9.216;2023-05-25T12:27:19;95890.31;;;20.63;69.75
4590;BME280;2307;48.448;9.216;2023-05-25T12:29:46;95896.72;;;20.67;66.17
4590;BME280;2307;48.448;9.216;2023-05-25T12:32:20;95905.47;;;20.54;67.42
4590;BME280;2307;48.448;9.216;2023-05-25T12:34:47;95898.81;;;20.46;68.89
4590;BME280;2307;48.448;9.216;2023-05-25T12:37:16;95903.03;;;20.29;69.23
4590;BME280;2307;48.448;9.216;2023-05-25T12:39:44;95909.28;;;20.19;72.03
4590;BME280;2307;48.448;9.216;2023-05-25T12:42:11;95894.91;;;20.05;70.57
4590;BME280;2307;48.448;9.216;2023-05-25T12:44:38;95904.13;;;20.28;73.11
4590;BME280;2307;48.448;9.216;2023-05-25T12:47:09;95903.44;;;20.12;74.58
4590;BME280;2307;48.448;9.216;2023-05-25T12:49:37;95904.25;;;20.07;73.53
4590;BME280;2307;48.448;9.216;2023-05-25T12:52:04;95905.81;;;20.47;72.89
4590;BME280;2307;48.448;9.216;2023-05-25T12:54:46;95906.06;;;20.46;71.42
4590;BME280;2307;48.448;9.216;2023-05-25T12:57:14;95908.25;;;20.44;71.75
4590;BME280;2307;48.448;9.216;2023-05-25T12:59:41;95908.47;;;20.47;71.63
4590;BME280;2307;48.448;9.216;2023-05-25T13:02:07;95914.28;;;20.31;72.29
4590;BME280;2307;48.448;9.216;2023-05-25T13:04:34;95911.31;;;20.32;71.31
4590;BME280;2307;48.448;9.216;2023-05-25T13:07:02;95904.75;;;20.43;72.61
4590;BME280;2307;48.448;9.216;2023-05-25T13:09:34;95905.16;;;20.32;73.49
4590;BME280;2307;48.448;9.216;2023-05-25T13:12:00;95903.31;;;20.27;73.86
4590;BME280;2307;48.448;9.216;2023-05-25T13:14:27;95899.28;;;20.77;71.80
4590;BME280;2307;48.448;9.216;2023-05-25T13:16:54;95898.34;;;20.39;70.52
4590;BME280;2307;48.448;9.216;2023-05-25T13:19:21;95903.84;;;20.24;71.28
4590;BME280;2307;48.448;9.216;2023-05-25T13:21:48;95908.97;;;20.21;71.44
4590;BME280;2307;48.448;9.216;2023-05-25T13:26:52;95905.78;;;20.71;70.94
4590;BME280;2307;48.448;9.216;2023-05-25T13:29:19;95899.19;;;21.11;66.90
4590;BME280;2307;48.448;9.216;2023-05-25T13:31:45;95903.56;;;20.78;67.42
4590;BME280;2307;48.448;9.216;2023-05-25T13:34:12;95908.16;;;20.54;70.57
4590;BME280;2307;48.448;9.216;2023-05-25T13:36:38;95896.22;;;21.07;68.49
4590;BME280;2307;48.448;9.216;2023-05-25T13:39:04;95901.97;;;21.25;66.90